createdAt,value
2023-02-15T00:01:49.103Z,18.67
2023-02-15T00:04:18.174Z,19.23
2023-02-15T00:06:45.190Z,18.20
2023-02-15T00:09:12.975Z,18.83
2023-02-15T00:11:51.200Z,18.37
2023-02-15T00:14:23.458Z,17.57
2023-02-15T00:16:52.074Z,19.13
2023-02-15T00:19:21.515Z,19.17
2023-02-15T00:21:49.235Z,19.47
2023-02-15T00:24:17.796Z,19.17
2023-02-15T00:26:45.088Z,19.23
2023-02-15T00:29:13.060Z,20.53
2023-02-15T00:31:39.877Z,19.17
2023-02-15T00:34:11.491Z,18.67
2023-02-15T00:36:38.970Z,19.57
2023-02-15T00:39:05.986Z,18.50
2023-02-15T00:41:33.624Z,19.23
2023-02-15T00:44:00.712Z,18.70
2023-02-15T00:46:27.824Z,18.77
2023-02-15T00:48:54.482Z,17.70
2023-02-15T00:51:24.095Z,19.77
2023-02-15T00:53:50.829Z,19.03
2023-02-15T00:56:17.593Z,18.97
2023-02-15T00:58:44.502Z,18.67
2023-02-15T01:01:17.075Z,18.23
2023-02-15T01:03:47.333Z,19.57
2023-02-15T01:06:15.955Z,17.93
2023-02-15T01:08:44.584Z,18.23
2023-02-15T01:11:22.640Z,18.30
2023-02-15T01:13:58.211Z,17.27
2023-02-15T01:16:28.249Z,20.20
2023-02-15T01:18:57.877Z,18.77
2023-02-15T01:21:26.526Z,17.90
2023-02-15T01:23:53.402Z,17.90
2023-02-15T01:26:21.532Z,19.20
2023-02-15T01:28:48.428Z,17.80
2023-02-15T01:31:21.891Z,19.27
2023-02-15T01:33:49.481Z,18.73
2023-02-15T01:36:18.239Z,18.40
2023-02-15T01:38:45.013Z,19.00
2023-02-15T01:41:20.823Z,18.20
2023-02-15T01:43:51.001Z,18.43
2023-02-15T01:46:22.930Z,18.13
2023-02-15T01:48:53.705Z,18.60
2023-02-15T01:51:24.182Z,18.00
2023-02-15T01:54:01.307Z,19.77
2023-02-15T01:56:35.582Z,19.10
2023-02-15T01:59:08.061Z,18.90
2023-02-15T02:01:34.783Z,19.07
2023-02-15T02:04:30.716Z,20.53
2023-02-15T02:06:58.620Z,19.13
2023-02-15T02:09:25.770Z,18.97
2023-02-15T02:11:54.961Z,18.63
2023-02-15T02:14:23.148Z,18.27
2023-02-15T02:17:29.198Z,19.03
2023-02-15T02:20:29.392Z,18.07
2023-02-15T02:23:12.390Z,18.97
2023-02-15T02:25:47.646Z,19.03
2023-02-15T02:28:44.105Z,19.37
2023-02-15T02:31:32.425Z,18.97
2023-02-15T02:34:04.989Z,17.97
2023-02-15T02:36:50.305Z,18.90
2023-02-15T02:39:26.401Z,18.93
2023-02-15T02:42:17.700Z,19.73
2023-02-15T02:44:47.880Z,18.03
2023-02-15T02:47:23.632Z,18.27
2023-02-15T02:49:58.770Z,18.67
2023-02-15T02:52:46.810Z,18.23
2023-02-15T02:55:22.502Z,18.33
2023-02-15T02:58:03.646Z,18.83
2023-02-15T03:00:37.179Z,18.03
2023-02-15T03:03:15.893Z,19.67
2023-02-15T03:05:45.800Z,19.13
2023-02-15T03:08:22.496Z,18.63
2023-02-15T03:10:56.636Z,19.50
2023-02-15T03:13:24.451Z,19.53
2023-02-15T03:16:11.561Z,20.87
2023-02-15T03:18:58.085Z,18.63
2023-02-15T03:21:58.550Z,19.40
2023-02-15T03:24:38.252Z,18.60
2023-02-15T03:27:11.621Z,19.17
2023-02-15T03:29:39.802Z,19.27
2023-02-15T03:32:10.726Z,18.33
2023-02-15T03:34:37.661Z,19.83
2023-02-15T03:37:35.336Z,18.83
2023-02-15T03:40:40.738Z,17.97
2023-02-15T03:43:22.227Z,18.23
2023-02-15T03:45:57.824Z,17.87
2023-02-15T03:48:39.262Z,18.60
2023-02-15T03:51:37.061Z,18.20
2023-02-15T03:54:11.260Z,19.87
2023-02-15T03:56:40.982Z,19.80
2023-02-15T03:59:27.297Z,19.47
2023-02-15T04:02:05.667Z,18.23
2023-02-15T04:04:38.535Z,20.17
2023-02-15T04:07:07.978Z,18.27
2023-02-15T04:09:53.840Z,19.47
2023-02-15T04:12:20.813Z,18.90
2023-02-15T04:15:06.288Z,19.03
2023-02-15T04:17:32.993Z,17.70
2023-02-15T04:20:18.086Z,18.87
2023-02-15T04:23:03.428Z,17.77
2023-02-15T04:25:30.239Z,18.93
2023-02-15T04:27:56.951Z,18.37
2023-02-15T04:30:26.819Z,18.50
2023-02-15T04:32:54.918Z,18.10
2023-02-15T04:35:21.618Z,18.17
2023-02-15T04:37:48.516Z,16.23
2023-02-15T04:40:19.216Z,17.43
2023-02-15T04:42:49.234Z,17.17
2023-02-15T04:45:15.993Z,17.03
2023-02-15T04:47:42.756Z,16.80
2023-02-15T04:50:09.746Z,17.00
2023-02-15T04:52:37.072Z,18.43
2023-02-15T04:55:03.844Z,16.83
2023-02-15T04:57:30.557Z,18.17
2023-02-15T04:59:58.075Z,16.90
2023-02-15T05:02:24.760Z,15.93
2023-02-15T05:04:51.391Z,16.47
2023-02-15T05:07:18.553Z,15.53
2023-02-15T05:09:45.194Z,16.00
2023-02-15T05:12:11.835Z,15.67
2023-02-15T05:14:38.453Z,15.53
2023-02-15T05:17:06.228Z,14.37
2023-02-15T05:19:33.106Z,14.07
2023-02-15T05:22:00.194Z,14.40
2023-02-15T05:24:45.329Z,14.53
2023-02-15T05:27:31.267Z,15.70
2023-02-15T05:29:58.101Z,14.53
2023-02-15T05:32:25.019Z,14.37
2023-02-15T05:34:51.784Z,15.37
2023-02-15T05:37:18.471Z,14.93
2023-02-15T05:39:45.155Z,14.73
2023-02-15T05:42:11.905Z,14.63
2023-02-15T05:44:38.535Z,15.07
2023-02-15T05:47:07.991Z,14.13
2023-02-15T05:49:34.680Z,14.33
2023-02-15T05:52:01.372Z,14.20
2023-02-15T05:54:29.095Z,15.13
2023-02-15T05:56:55.806Z,15.10
2023-02-15T05:59:22.462Z,15.17
2023-02-15T06:01:49.130Z,15.23
2023-02-15T06:04:15.826Z,14.80
2023-02-15T06:06:42.642Z,14.03
2023-02-15T06:09:10.688Z,15.40
2023-02-15T06:11:37.352Z,14.33
2023-02-15T06:14:03.996Z,14.60
2023-02-15T06:16:31.097Z,14.20
2023-02-15T06:18:57.918Z,14.70
2023-02-15T06:21:24.543Z,18.07
2023-02-15T06:23:51.194Z,20.33
2023-02-15T06:26:18.106Z,16.10
2023-02-15T06:28:44.738Z,15.93
2023-02-15T06:31:11.703Z,15.03
2023-02-15T06:33:39.143Z,15.70
2023-02-15T06:36:06.011Z,14.90
2023-02-15T06:38:32.867Z,14.93
2023-02-15T06:40:59.619Z,14.87
2023-02-15T06:43:26.378Z,14.80
2023-02-15T06:45:53.036Z,14.33
2023-02-15T06:48:19.872Z,15.30
2023-02-15T06:50:46.520Z,15.97
2023-02-15T06:53:13.196Z,15.30
2023-02-15T06:55:39.831Z,15.63
2023-02-15T06:58:06.512Z,15.37
2023-02-15T07:00:33.215Z,15.57
2023-02-15T07:03:00.511Z,14.80
2023-02-15T07:05:31.656Z,14.47
2023-02-15T07:07:59.553Z,14.30
2023-02-15T07:10:26.900Z,14.70
2023-02-15T07:12:54.034Z,13.60
2023-02-15T07:15:23.655Z,15.90
2023-02-15T07:17:50.823Z,14.27
2023-02-15T07:20:20.299Z,13.60
2023-02-15T07:22:47.353Z,14.17
2023-02-15T07:25:14.583Z,15.30
2023-02-15T07:27:41.566Z,13.63
2023-02-15T07:30:10.605Z,14.37
2023-02-15T07:32:37.433Z,14.73
2023-02-15T07:35:04.314Z,13.93
2023-02-15T07:37:30.960Z,13.73
2023-02-15T07:39:57.587Z,13.10
2023-02-15T07:42:24.307Z,13.33
2023-02-15T07:44:51.703Z,13.40
2023-02-15T07:47:18.440Z,13.83
2023-02-15T07:49:45.631Z,14.00
2023-02-15T07:52:12.392Z,14.20
2023-02-15T07:54:39.388Z,14.03
2023-02-15T07:57:06.090Z,13.63
2023-02-15T07:59:32.754Z,14.60
2023-02-15T08:01:59.459Z,13.90
2023-02-15T08:04:26.219Z,14.53
2023-02-15T08:06:55.171Z,13.90
2023-02-15T08:09:22.718Z,14.50
2023-02-15T08:11:49.840Z,14.33
2023-02-15T08:14:19.189Z,15.67
2023-02-15T08:16:55.895Z,14.50
2023-02-15T08:19:28.457Z,14.27
2023-02-15T08:22:00.382Z,15.30
2023-02-15T08:24:29.778Z,13.57
2023-02-15T08:26:56.548Z,15.37
2023-02-15T08:29:25.525Z,15.60
2023-02-15T08:32:03.087Z,14.67
2023-02-15T08:34:32.299Z,14.10
2023-02-15T08:36:59.065Z,15.60
2023-02-15T08:39:25.718Z,14.77
2023-02-15T08:41:52.447Z,14.20
2023-02-15T08:44:20.968Z,16.00
2023-02-15T08:46:49.347Z,15.80
2023-02-15T08:49:21.277Z,15.27
2023-02-15T08:51:49.294Z,15.40
2023-02-15T08:54:19.096Z,16.43
2023-02-15T08:56:46.816Z,14.03
2023-02-15T08:59:17.509Z,14.07
2023-02-15T09:01:45.181Z,14.73
2023-02-15T09:04:13.244Z,13.20
2023-02-15T09:06:41.494Z,14.13
2023-02-15T09:09:08.818Z,12.17
2023-02-15T09:11:38.688Z,12.23
2023-02-15T09:14:27.396Z,12.63
2023-02-15T09:16:54.364Z,12.30
2023-02-15T09:19:22.691Z,13.83
2023-02-15T09:21:49.689Z,13.37
2023-02-15T09:24:18.056Z,13.77
2023-02-15T09:26:47.655Z,13.13
2023-02-15T09:29:15.576Z,13.43
2023-02-15T09:31:46.024Z,12.67
2023-02-15T09:34:14.280Z,13.37
2023-02-15T09:36:41.857Z,12.13
2023-02-15T09:39:30.243Z,13.23
2023-02-15T09:42:16.785Z,12.70
2023-02-15T09:45:21.168Z,12.37
2023-02-15T09:48:13.364Z,12.90
2023-02-15T09:51:21.801Z,12.97
2023-02-15T09:54:06.463Z,12.53
2023-02-15T09:56:46.055Z,12.60
2023-02-15T09:59:16.851Z,12.33
2023-02-15T10:01:49.300Z,11.63
2023-02-15T10:04:42.407Z,13.87
2023-02-15T10:07:09.028Z,12.07
2023-02-15T10:09:49.839Z,11.93
2023-02-15T10:12:44.724Z,12.50
2023-02-15T10:15:20.262Z,12.30
2023-02-15T10:17:49.777Z,11.37
2023-02-15T10:20:25.684Z,12.10
2023-02-15T10:23:00.838Z,12.00
2023-02-15T10:25:52.028Z,11.47
2023-02-15T10:28:21.570Z,11.67
2023-02-15T10:31:22.188Z,11.07
2023-02-15T10:33:56.337Z,11.87
2023-02-15T10:36:41.507Z,11.97
2023-02-15T10:39:55.286Z,11.70
2023-02-15T10:42:41.643Z,11.47
2023-02-15T10:45:24.986Z,11.33
2023-02-15T10:47:54.761Z,11.43
2023-02-15T10:50:39.603Z,11.23
2023-02-15T10:53:30.329Z,11.97
2023-02-15T10:56:12.565Z,10.60
2023-02-15T10:58:48.491Z,10.07
2023-02-15T11:01:33.054Z,10.67
2023-02-15T11:04:36.749Z,11.47
2023-02-15T11:07:26.638Z,11.87
2023-02-15T11:10:02.687Z,10.53
2023-02-15T11:12:31.973Z,10.70
2023-02-15T11:15:21.865Z,10.13
2023-02-15T11:18:19.239Z,10.90
2023-02-15T11:21:10.892Z,11.10
2023-02-15T11:23:43.711Z,11.87
2023-02-15T11:26:25.117Z,12.17
2023-02-15T11:29:26.641Z,11.93
2023-02-15T11:32:15.268Z,11.73
2023-02-15T11:35:01.483Z,12.50
2023-02-15T11:37:54.592Z,11.33
2023-02-15T11:40:50.439Z,11.10
2023-02-15T11:43:44.892Z,11.67
2023-02-15T11:46:13.675Z,11.50
2023-02-15T11:48:40.734Z,11.47
2023-02-15T11:51:13.681Z,11.50
2023-02-15T11:53:40.575Z,11.70
2023-02-15T11:56:17.664Z,11.20
2023-02-15T11:58:56.888Z,11.07
2023-02-15T12:01:41.819Z,11.87
2023-02-15T12:04:41.281Z,12.00
2023-02-15T12:07:37.374Z,11.47
2023-02-15T12:10:28.678Z,11.77
2023-02-15T12:13:17.362Z,12.10
2023-02-15T12:15:50.805Z,11.03
2023-02-15T12:18:36.102Z,10.93
2023-02-15T12:21:14.300Z,12.27
2023-02-15T12:23:48.052Z,11.97
2023-02-15T12:26:15.321Z,11.80
2023-02-15T12:28:50.036Z,11.83
2023-02-15T12:31:29.448Z,11.27
2023-02-15T12:33:59.167Z,10.90
2023-02-15T12:36:30.639Z,10.87
2023-02-15T12:39:14.261Z,11.53
2023-02-15T12:41:58.392Z,10.70
2023-02-15T12:44:31.344Z,11.43
2023-02-15T12:47:00.807Z,10.97
2023-02-15T12:49:29.075Z,11.10
2023-02-15T12:51:59.233Z,10.07
2023-02-15T12:54:39.612Z,10.60
2023-02-15T12:57:34.519Z,10.97
2023-02-15T13:00:06.645Z,10.43
2023-02-15T13:02:44.357Z,11.57
2023-02-15T13:05:14.494Z,10.50
2023-02-15T13:07:56.847Z,10.50
2023-02-15T13:10:56.965Z,10.53
2023-02-15T13:13:27.620Z,9.90
2023-02-15T13:16:15.890Z,10.17
2023-02-15T13:18:48.016Z,10.20
2023-02-15T13:21:25.688Z,10.03
2023-02-15T13:23:58.746Z,9.90
2023-02-15T13:26:29.868Z,9.23
2023-02-15T13:29:09.515Z,10.30
2023-02-15T13:31:36.903Z,10.03
2023-02-15T13:34:20.053Z,10.47
2023-02-15T13:37:04.919Z,10.13
2023-02-15T13:40:04.895Z,11.33
2023-02-15T13:42:40.372Z,10.23
2023-02-15T13:45:28.769Z,9.93
2023-02-15T13:48:17.799Z,10.97
2023-02-15T13:51:16.717Z,9.00
2023-02-15T13:54:27.097Z,10.47
2023-02-15T13:57:11.941Z,10.47
2023-02-15T14:00:02.765Z,9.40
2023-02-15T14:02:48.712Z,9.57
2023-02-15T14:05:34.592Z,9.53
2023-02-15T14:08:12.125Z,9.57
2023-02-15T14:11:05.003Z,9.40
2023-02-15T14:13:59.698Z,10.23
2023-02-15T14:17:05.762Z,10.77
2023-02-15T14:19:40.467Z,11.23
2023-02-15T14:22:15.702Z,10.50
2023-02-15T14:25:04.263Z,10.97
2023-02-15T14:27:45.609Z,10.30
2023-02-15T14:30:30.561Z,10.87
2023-02-15T14:33:03.762Z,10.43
2023-02-15T14:35:31.466Z,9.83
2023-02-15T14:38:16.641Z,10.90
2023-02-15T14:41:02.465Z,10.80
2023-02-15T14:43:51.160Z,11.03
2023-02-15T14:46:29.937Z,10.70
2023-02-15T14:49:08.135Z,11.07
2023-02-15T14:51:43.973Z,11.00
2023-02-15T14:54:12.003Z,11.43
2023-02-15T14:56:41.706Z,11.07
2023-02-15T14:59:24.705Z,10.47
2023-02-15T15:01:59.311Z,11.07
2023-02-15T15:04:42.756Z,11.73
2023-02-15T15:07:19.782Z,11.97
2023-02-15T15:09:58.407Z,12.03
2023-02-15T15:12:25.048Z,11.53
2023-02-15T15:14:55.526Z,12.27
2023-02-15T15:17:34.400Z,11.67
2023-02-15T15:20:08.171Z,11.80
2023-02-15T15:22:36.328Z,12.73
2023-02-15T15:25:46.080Z,11.53
2023-02-15T15:28:35.404Z,12.43
2023-02-15T15:31:40.030Z,12.40
2023-02-15T15:34:51.167Z,12.43
2023-02-15T15:37:34.872Z,11.83
2023-02-15T15:40:31.758Z,12.73
2023-02-15T15:43:34.752Z,12.43
2023-02-15T15:46:28.999Z,12.10
2023-02-15T15:48:56.069Z,12.63
2023-02-15T15:51:30.181Z,11.67
2023-02-15T15:53:57.727Z,12.57
2023-02-15T15:56:32.846Z,13.10
2023-02-15T15:59:03.835Z,14.97
2023-02-15T16:01:35.764Z,13.83
2023-02-15T16:04:02.582Z,15.93
2023-02-15T16:06:35.619Z,20.47
2023-02-15T16:09:12.694Z,16.63
2023-02-15T16:11:40.613Z,14.50
2023-02-15T16:14:30.633Z,12.87
2023-02-15T16:17:00.077Z,12.43
2023-02-15T16:19:34.344Z,11.07
2023-02-15T16:22:02.698Z,10.97
2023-02-15T16:24:52.471Z,9.40
2023-02-15T16:27:23.692Z,9.43
2023-02-15T16:29:50.436Z,8.93
2023-02-15T16:32:21.460Z,9.37
2023-02-15T16:35:03.147Z,10.57
2023-02-15T16:37:35.102Z,9.40
2023-02-15T16:40:01.955Z,8.53
2023-02-15T16:42:28.679Z,8.43
2023-02-15T16:44:58.542Z,7.87
2023-02-15T16:47:28.585Z,8.37
2023-02-15T16:50:00.109Z,8.37
2023-02-15T16:52:29.020Z,8.93
2023-02-15T16:54:58.915Z,9.30
2023-02-15T16:57:30.930Z,8.57
2023-02-15T17:00:05.772Z,9.10
2023-02-15T17:02:55.228Z,8.93
2023-02-15T17:05:22.063Z,9.33
2023-02-15T17:08:03.852Z,8.17
2023-02-15T17:10:39.783Z,8.03
2023-02-15T17:13:16.465Z,8.30
2023-02-15T17:16:01.930Z,9.07
2023-02-15T17:18:39.518Z,8.40
2023-02-15T17:21:13.989Z,9.30
2023-02-15T17:23:47.240Z,8.23
2023-02-15T17:26:19.631Z,9.00
2023-02-15T17:28:50.110Z,8.93
2023-02-15T17:31:19.738Z,8.40
2023-02-15T17:33:47.488Z,8.87
2023-02-15T17:36:23.325Z,8.77
2023-02-15T17:38:59.213Z,8.60
2023-02-15T17:41:30.363Z,8.60
2023-02-15T17:43:57.271Z,8.30
2023-02-15T17:46:24.992Z,8.77
2023-02-15T17:48:54.594Z,8.77
2023-02-15T17:51:22.468Z,8.33
2023-02-15T17:54:08.353Z,8.47
2023-02-15T17:56:36.126Z,9.53
2023-02-15T17:59:07.459Z,11.63
2023-02-15T18:02:04.247Z,11.10
2023-02-15T18:04:51.869Z,11.60
2023-02-15T18:07:37.890Z,9.93
2023-02-15T18:10:35.490Z,9.90
2023-02-15T18:13:02.237Z,10.23
2023-02-15T18:15:29.198Z,12.23
2023-02-15T18:17:56.618Z,9.90
2023-02-15T18:20:36.820Z,10.87
2023-02-15T18:23:03.706Z,11.73
2023-02-15T18:25:30.494Z,11.87
2023-02-15T18:27:57.209Z,11.60
2023-02-15T18:30:26.760Z,13.13
2023-02-15T18:32:56.960Z,14.03
2023-02-15T18:35:26.753Z,14.77
2023-02-15T18:37:54.164Z,13.67
2023-02-15T18:40:23.430Z,14.47
2023-02-15T18:42:50.246Z,13.33
2023-02-15T18:45:18.558Z,14.23
2023-02-15T18:47:48.637Z,13.50
2023-02-15T18:50:16.976Z,13.70
2023-02-15T18:52:46.396Z,14.37
2023-02-15T18:55:22.253Z,12.43
2023-02-15T18:57:52.202Z,12.53
2023-02-15T19:00:25.157Z,12.37
2023-02-15T19:02:52.047Z,12.13
2023-02-15T19:05:18.746Z,12.57
2023-02-15T19:07:48.282Z,11.67
2023-02-15T19:10:23.716Z,12.43
2023-02-15T19:12:51.452Z,11.00
2023-02-15T19:15:21.193Z,11.67
2023-02-15T19:17:48.032Z,10.90
2023-02-15T19:20:26.900Z,10.70
2023-02-15T19:22:56.382Z,10.10
2023-02-15T19:25:28.643Z,10.53
2023-02-15T19:27:56.080Z,9.80
2023-02-15T19:30:29.807Z,10.00
2023-02-15T19:32:58.061Z,10.00
2023-02-15T19:35:28.497Z,9.40
2023-02-15T19:37:58.066Z,15.33
2023-02-15T19:40:27.893Z,10.30
2023-02-15T19:42:55.159Z,10.17
2023-02-15T19:45:27.296Z,10.80
2023-02-15T19:47:55.080Z,9.20
2023-02-15T19:50:25.594Z,9.70
2023-02-15T19:52:52.374Z,9.97
2023-02-15T19:55:45.445Z,9.70
2023-02-15T19:58:13.838Z,9.80
2023-02-15T20:00:40.552Z,10.07
2023-02-15T20:03:07.220Z,9.13
2023-02-15T20:05:38.251Z,8.97
2023-02-15T20:08:18.339Z,8.97
2023-02-15T20:10:45.806Z,8.80
2023-02-15T20:13:17.851Z,8.87
2023-02-15T20:15:45.272Z,9.80
2023-02-15T20:18:12.573Z,8.77
2023-02-15T20:20:54.420Z,8.20
2023-02-15T20:23:30.435Z,8.50
2023-02-15T20:25:59.465Z,9.50
2023-02-15T20:28:29.142Z,8.70
2023-02-15T20:30:55.975Z,8.40
2023-02-15T20:33:23.577Z,8.57
2023-02-15T20:35:50.838Z,8.57
2023-02-15T20:38:27.958Z,9.00
2023-02-15T20:41:15.314Z,8.33
2023-02-15T20:43:42.012Z,9.30
2023-02-15T20:46:11.837Z,8.90
2023-02-15T20:48:38.563Z,8.70
2023-02-15T20:51:06.059Z,9.33
2023-02-15T20:53:33.058Z,9.20
2023-02-15T20:55:59.717Z,8.63
2023-02-15T20:58:30.260Z,8.97
2023-02-15T21:00:58.469Z,8.93
2023-02-15T21:03:30.580Z,9.13
2023-02-15T21:05:58.218Z,9.13
2023-02-15T21:08:25.358Z,7.90
2023-02-15T21:10:53.836Z,8.97
2023-02-15T21:13:31.341Z,9.23
2023-02-15T21:15:58.783Z,9.80
2023-02-15T21:18:28.267Z,9.93
2023-02-15T21:20:58.050Z,9.30
2023-02-15T21:23:29.246Z,8.77
2023-02-15T21:25:57.197Z,9.30
2023-02-15T21:28:26.554Z,9.57
2023-02-15T21:30:54.373Z,9.27
2023-02-15T21:33:21.337Z,8.50
2023-02-15T21:35:50.407Z,7.73
2023-02-15T21:38:20.736Z,8.03
2023-02-15T21:40:48.399Z,8.27
2023-02-15T21:44:01.007Z,8.27
2023-02-15T21:46:42.713Z,8.20
2023-02-15T21:49:10.718Z,7.37
2023-02-15T21:51:56.219Z,8.00
2023-02-15T21:54:22.881Z,8.37
2023-02-15T21:56:51.311Z,7.93
2023-02-15T21:59:18.483Z,8.37
2023-02-15T22:01:48.781Z,8.20
2023-02-15T22:04:23.143Z,8.67
2023-02-15T22:06:49.855Z,9.23
2023-02-15T22:09:22.125Z,9.27
2023-02-15T22:11:50.142Z,8.37
2023-02-15T22:14:45.666Z,7.83
2023-02-15T22:17:24.787Z,7.73
2023-02-15T22:19:52.598Z,8.03
2023-02-15T22:22:19.322Z,7.93
2023-02-15T22:24:46.109Z,7.80
2023-02-15T22:27:35.461Z,7.77
2023-02-15T22:30:03.268Z,8.27
2023-02-15T22:32:30.103Z,7.80
2023-02-15T22:34:56.825Z,7.63
2023-02-15T22:37:23.513Z,7.80
2023-02-15T22:39:50.579Z,7.47
2023-02-15T22:42:25.200Z,6.70
2023-02-15T22:44:54.617Z,7.70
2023-02-15T22:47:24.023Z,7.73
2023-02-15T22:49:51.317Z,7.37
2023-02-15T22:52:18.809Z,7.70
2023-02-15T22:54:45.894Z,7.33
2023-02-15T22:57:29.165Z,6.70
2023-02-15T22:59:56.584Z,7.77
2023-02-15T23:02:23.278Z,7.27
2023-02-15T23:04:49.996Z,7.67
2023-02-15T23:07:19.058Z,7.80
2023-02-15T23:09:46.261Z,7.00
2023-02-15T23:12:24.661Z,7.53
2023-02-15T23:14:52.261Z,7.60
2023-02-15T23:17:19.395Z,7.63
2023-02-15T23:19:46.429Z,7.07
2023-02-15T23:22:15.467Z,6.97
2023-02-15T23:24:42.738Z,6.27
2023-02-15T23:27:37.520Z,7.30
2023-02-15T23:30:15.130Z,7.53
2023-02-15T23:32:41.822Z,7.00
2023-02-15T23:35:17.118Z,7.03
2023-02-15T23:37:44.047Z,6.97
2023-02-15T23:40:36.964Z,6.63
2023-02-15T23:43:04.743Z,7.40
2023-02-15T23:45:34.852Z,6.50
2023-02-15T23:48:20.312Z,6.53
2023-02-15T23:50:46.960Z,8.20
2023-02-15T23:53:13.604Z,7.53
2023-02-15T23:55:43.379Z,6.87
2023-02-15T23:58:16.248Z,7.20
